Time;durP1;ratioP1;P1;durP2;ratioP2;P2;SDS_P1;SDS_P2;PMS_P1;PMS_P2;Temp;Humidity;BMP_temperature;BMP_pressure;BME280_temperature;BME280_humidity;BME280_pressure;Samples;Min_cycle;Max_cycle;Signal;HPM_P1;HPM_P2
2021/07/18 00:00:16;;;;;;;5.50;3.40;;;20.90;99.90;;;;;;4904302;29;20466;-76
2021/07/18 00:02:43;;;;;;;5.20;2.93;;;20.90;99.90;;;;;;4903303;29;20462;-77
2021/07/18 00:05:11;;;;;;;3.00;2.53;;;20.90;99.90;;;;;;4903573;29;20474;-77
2021/07/18 00:07:38;;;;;;;6.63;2.73;;;20.90;99.90;;;;;;4902936;29;20954;-77
2021/07/18 00:10:06;;;;;;;6.77;3.47;;;20.90;99.90;;;;;;4903289;29;20482;-76
2021/07/18 00:12:34;;;;;;;3.27;2.97;;;20.90;99.90;;;;;;4903521;29;20451;-77
2021/07/18 00:15:01;;;;;;;3.93;3.37;;;20.80;99.90;;;;;;4903075;29;20462;-76
2021/07/18 00:17:28;;;;;;;3.33;2.47;;;20.80;99.90;;;;;;4903001;29;20490;-76
2021/07/18 00:19:56;;;;;;;4.03;3.30;;;20.70;99.90;;;;;;4902597;29;20472;-76
2021/07/18 00:22:23;;;;;;;3.63;2.93;;;20.70;99.90;;;;;;4902951;29;20473;-76
2021/07/18 00:24:50;;;;;;;3.50;2.33;;;20.60;99.90;;;;;;4903546;29;20462;-76
2021/07/18 00:27:16;;;;;;;6.50;3.10;;;20.70;99.90;;;;;;4905083;29;20934;-77
2021/07/18 00:29:44;;;;;;;4.13;2.73;;;20.60;99.90;;;;;;4902522;29;20474;-76
2021/07/18 00:32:11;;;;;;;3.03;2.70;;;20.60;99.90;;;;;;4902781;29;20493;-76
2021/07/18 00:34:38;;;;;;;4.37;2.87;;;20.50;99.90;;;;;;4903130;29;20795;-78
2021/07/18 00:37:05;;;;;;;5.30;3.03;;;20.50;99.90;;;;;;4905004;29;20462;-77
2021/07/18 00:39:31;;;;;;;3.57;2.60;;;20.50;99.90;;;;;;4905057;29;20458;-77
2021/07/18 00:41:58;;;;;;;4.37;2.40;;;20.40;99.90;;;;;;4902178;29;20495;-77
2021/07/18 00:44:25;;;;;;;4.07;2.83;;;20.40;99.90;;;;;;4902206;29;20522;-78
2021/07/18 00:46:53;;;;;;;5.33;2.90;;;20.40;99.90;;;;;;4902284;29;20473;-77
2021/07/18 00:49:20;;;;;;;7.00;2.80;;;20.40;99.90;;;;;;4902114;29;20470;-77
2021/07/18 00:51:49;;;;;;;3.10;2.60;;;20.40;99.90;;;;;;4901896;29;20501;-77
2021/07/18 00:54:16;;;;;;;4.77;2.57;;;20.30;99.90;;;;;;4901946;29;20931;-77
2021/07/18 00:56:43;;;;;;;4.57;3.00;;;20.30;99.90;;;;;;4902832;29;20462;-77
2021/07/18 00:59:10;;;;;;;5.47;3.03;;;20.30;99.90;;;;;;4902573;29;20466;-77
2021/07/18 01:01:41;;;;;;;4.10;3.20;;;20.20;99.90;;;;;;4902117;29;20549;-77
2021/07/18 01:04:10;;;;;;;11.43;2.70;;;20.20;99.90;;;;;;4901742;29;20442;-77
2021/07/18 01:06:36;;;;;;;3.23;3.00;;;20.20;99.90;;;;;;4901808;29;20570;-77
2021/07/18 01:09:04;;;;;;;5.60;3.10;;;20.20;99.90;;;;;;4902131;29;20466;-77
2021/07/18 01:11:30;;;;;;;5.17;3.33;;;20.10;99.90;;;;;;4901504;29;20966;-77
2021/07/18 01:13:57;;;;;;;4.20;2.30;;;20.10;99.90;;;;;;4901848;29;20470;-78
2021/07/18 01:16:25;;;;;;;5.70;3.50;;;20.10;99.90;;;;;;4901660;29;20954;-78
2021/07/18 01:18:52;;;;;;;4.57;2.90;;;20.00;99.90;;;;;;4901745;29;20543;-77
2021/07/18 01:21:23;;;;;;;6.40;3.23;;;20.00;99.90;;;;;;4901357;29;20918;-77
2021/07/18 01:23:52;;;;;;;5.13;3.13;;;20.00;99.90;;;;;;4901722;29;20510;-77
2021/07/18 01:26:19;;;;;;;7.57;3.63;;;20.00;99.90;;;;;;4901528;29;20918;-77
2021/07/18 01:28:46;;;;;;;4.87;2.47;;;20.00;99.90;;;;;;4901422;29;20529;-77
2021/07/18 01:31:15;;;;;;;6.37;2.63;;;19.90;99.90;;;;;;4901788;29;20490;-77
2021/07/18 01:33:42;;;;;;;3.73;2.93;;;19.90;99.90;;;;;;4902587;29;20477;-77
2021/07/18 01:36:10;;;;;;;10.83;2.90;;;19.90;99.90;;;;;;4903240;29;20825;-77
2021/07/18 01:38:36;;;;;;;6.37;3.33;;;19.80;99.90;;;;;;4902304;29;20480;-77
2021/07/18 01:41:05;;;;;;;5.43;3.30;;;19.80;99.90;;;;;;4902570;29;20934;-78
2021/07/18 01:43:31;;;;;;;6.00;2.93;;;19.80;99.90;;;;;;4901740;29;20463;-77
2021/07/18 01:45:58;;;;;;;5.37;3.37;;;19.70;99.90;;;;;;4901709;29;20477;-78
2021/07/18 01:48:25;;;;;;;8.97;3.10;;;19.70;99.90;;;;;;4901964;29;20462;-77
2021/07/18 01:50:51;;;;;;;4.60;2.60;;;19.70;99.90;;;;;;4901277;29;20486;-77
2021/07/18 01:53:20;;;;;;;5.20;2.90;;;19.70;99.90;;;;;;4900950;29;20461;-76
2021/07/18 01:55:53;;;;;;;4.13;2.70;;;19.60;99.90;;;;;;4900978;29;20470;-76
2021/07/18 01:58:25;;;;;;;4.20;2.60;;;19.60;99.90;;;;;;4901016;29;20447;-76
2021/07/18 02:00:52;;;;;;;5.07;2.90;;;19.60;99.90;;;;;;4901210;29;20458;-77
2021/07/18 02:03:19;;;;;;;5.20;2.93;;;19.60;99.90;;;;;;4901262;29;20462;-77
2021/07/18 02:05:46;;;;;;;4.70;2.33;;;19.60;99.90;;;;;;4901166;29;20466;-77
2021/07/18 02:08:12;;;;;;;4.30;3.27;;;19.50;99.90;;;;;;4901203;29;20529;-76
2021/07/18 02:10:39;;;;;;;3.33;3.03;;;19.50;99.90;;;;;;4900647;29;20494;-78
2021/07/18 02:13:06;;;;;;;5.10;2.87;;;19.50;99.90;;;;;;4901412;29;20446;-77
2021/07/18 02:15:34;;;;;;;5.10;3.13;;;19.50;99.90;;;;;;4900988;29;20526;-77
2021/07/18 02:18:02;;;;;;;3.10;2.50;;;19.40;99.90;;;;;;4902594;29;20495;-77
2021/07/18 02:20:29;;;;;;;3.30;2.50;;;19.40;99.90;;;;;;4903575;29;20454;-77
2021/07/18 02:22:56;;;;;;;3.50;2.70;;;19.40;99.90;;;;;;4904026;29;20473;-77
2021/07/18 02:25:25;;;;;;;3.97;2.80;;;19.40;99.90;;;;;;4901233;29;20793;-77
2021/07/18 02:27:52;;;;;;;2.97;2.67;;;19.40;99.90;;;;;;4900551;29;20492;-77
2021/07/18 02:30:20;;;;;;;3.63;2.93;;;19.40;99.90;;;;;;4900756;29;20497;-77
2021/07/18 02:32:49;;;;;;;2.60;2.40;;;19.30;99.90;;;;;;4901010;29;20466;-77
2021/07/18 02:35:17;;;;;;;3.10;2.70;;;19.20;99.90;;;;;;4900670;29;20466;-77
2021/07/18 02:37:45;;;;;;;5.57;2.50;;;19.20;99.90;;;;;;4900573;29;20459;-77
2021/07/18 02:40:13;;;;;;;3.77;3.00;;;19.20;99.90;;;;;;4900670;29;20489;-77
2021/07/18 02:42:40;;;;;;;3.90;2.97;;;19.20;99.90;;;;;;4900441;29;20465;-77
2021/07/18 02:45:09;;;;;;;6.47;3.50;;;19.10;99.90;;;;;;4900466;29;20466;-77
2021/07/18 02:47:36;;;;;;;3.27;3.00;;;19.10;99.90;;;;;;4900839;29;20469;-77
2021/07/18 02:50:05;;;;;;;4.17;2.60;;;19.10;99.90;;;;;;4900426;29;20471;-78
2021/07/18 02:52:31;;;;;;;6.83;3.13;;;19.10;99.90;;;;;;4900269;29;20503;-77
2021/07/18 02:55:00;;;;;;;4.07;3.20;;;19.10;99.90;;;;;;4900964;29;20462;-77
2021/07/18 02:57:26;;;;;;;6.70;3.87;;;19.00;99.90;;;;;;4901481;29;20860;-78
2021/07/18 02:59:53;;;;;;;11.40;2.90;;;19.00;99.90;;;;;;4902275;29;20522;-78
2021/07/18 03:02:20;;;;;;;3.30;2.73;;;19.00;99.90;;;;;;4903169;29;20469;-77
2021/07/18 03:04:46;;;;;;;4.77;2.90;;;18.90;99.90;;;;;;4903268;29;20475;-77
2021/07/18 03:07:15;;;;;;;5.27;3.30;;;18.90;99.90;;;;;;4905585;29;20466;-78
2021/07/18 03:09:42;;;;;;;4.00;3.00;;;18.90;99.90;;;;;;4904690;29;20470;-78
2021/07/18 03:12:09;;;;;;;4.70;3.33;;;18.90;99.90;;;;;;4902750;29;20895;-77
2021/07/18 03:14:37;;;;;;;4.17;2.90;;;18.80;99.90;;;;;;4901020;29;20522;-78
2021/07/18 03:17:04;;;;;;;8.17;3.30;;;18.80;99.90;;;;;;4901141;29;20482;-78
2021/07/18 03:19:31;;;;;;;5.00;3.70;;;18.70;99.90;;;;;;4900759;29;20466;-77
2021/07/18 03:22:00;;;;;;;3.80;2.80;;;18.70;99.90;;;;;;4901200;29;20458;-78
2021/07/18 03:24:28;;;;;;;4.23;3.07;;;18.70;99.90;;;;;;4901155;29;20474;-77
2021/07/18 03:26:55;;;;;;;4.20;3.50;;;18.70;99.90;;;;;;4900534;29;20463;-77
2021/07/18 03:29:24;;;;;;;4.47;3.47;;;18.70;99.90;;;;;;4901213;29;20471;-78
2021/07/18 03:31:51;;;;;;;5.17;3.20;;;18.70;99.90;;;;;;4900724;29;20501;-77
2021/07/18 03:34:17;;;;;;;5.53;3.13;;;18.70;99.90;;;;;;4900810;29;20477;-78
2021/07/18 03:36:44;;;;;;;5.73;3.37;;;18.70;99.90;;;;;;4900235;29;20467;-78
2021/07/18 03:39:11;;;;;;;3.90;2.90;;;18.70;99.90;;;;;;4900617;29;20521;-78
2021/07/18 03:41:39;;;;;;;3.60;2.73;;;18.70;99.90;;;;;;4900295;29;20831;-76
2021/07/18 03:44:06;;;;;;;11.63;3.87;;;18.70;99.90;;;;;;4899719;29;20478;-76
2021/07/18 03:46:33;;;;;;;5.63;3.47;;;18.60;99.90;;;;;;4900652;29;20471;-76
2021/07/18 03:49:00;;;;;;;4.23;3.30;;;18.70;99.90;;;;;;4903404;29;20854;-75
2021/07/18 03:51:27;;;;;;;5.13;3.30;;;18.70;99.90;;;;;;4900499;29;20814;-77
2021/07/18 03:53:54;;;;;;;4.23;3.00;;;18.70;99.90;;;;;;4900286;29;20465;-77
2021/07/18 03:56:22;;;;;;;5.77;3.13;;;18.70;99.90;;;;;;4900497;29;20462;-77
2021/07/18 03:58:50;;;;;;;6.97;3.20;;;18.70;99.90;;;;;;4900818;29;20777;-77
2021/07/18 04:01:17;;;;;;;5.50;3.57;;;18.70;99.90;;;;;;4900175;29;20473;-77
2021/07/18 04:03:46;;;;;;;5.13;3.50;;;18.70;99.90;;;;;;4900611;29;20462;-77
2021/07/18 04:06:13;;;;;;;3.03;2.70;;;18.60;99.90;;;;;;4900177;29;20854;-77
2021/07/18 04:08:40;;;;;;;4.90;2.70;;;18.70;99.90;;;;;;4900384;29;20466;-77
2021/07/18 04:11:07;;;;;;;5.63;3.63;;;18.70;99.90;;;;;;4900028;29;20498;-76
2021/07/18 04:13:33;;;;;;;6.27;3.67;;;18.80;99.90;;;;;;4899632;29;20466;-77
2021/07/18 04:16:02;;;;;;;7.27;2.67;;;18.80;99.90;;;;;;4899792;29;20477;-76
2021/07/18 04:18:28;;;;;;;4.40;2.60;;;18.80;99.90;;;;;;4902589;29;20462;-76
2021/07/18 04:20:55;;;;;;;6.60;3.73;;;18.80;99.90;;;;;;4903433;29;20807;-76
2021/07/18 04:23:22;;;;;;;6.83;2.60;;;18.80;99.90;;;;;;4903942;29;20466;-76
2021/07/18 04:25:48;;;;;;;3.40;2.60;;;18.80;99.90;;;;;;4903588;29;20476;-76
2021/07/18 04:28:15;;;;;;;8.40;3.07;;;18.90;99.90;;;;;;4903036;29;20477;-77
2021/07/18 04:30:42;;;;;;;3.67;3.17;;;19.00;99.90;;;;;;4903766;29;20467;-77
2021/07/18 04:33:10;;;;;;;8.13;3.10;;;19.00;99.90;;;;;;4903196;29;20826;-77
2021/07/18 04:35:37;;;;;;;5.73;2.90;;;19.00;99.90;;;;;;4903553;29;20466;-77
2021/07/18 04:38:06;;;;;;;8.00;2.90;;;19.00;99.90;;;;;;4903526;29;20473;-76
2021/07/18 04:40:34;;;;;;;3.30;2.90;;;19.00;99.90;;;;;;4905061;29;20473;-76
2021/07/18 04:43:01;;;;;;;3.83;2.47;;;19.00;99.90;;;;;;4904019;29;20458;-76
2021/07/18 04:45:28;;;;;;;7.30;2.70;;;19.00;99.90;;;;;;4904399;29;20473;-76
2021/07/18 04:47:56;;;;;;;13.43;3.40;;;19.00;99.90;;;;;;4904230;29;20458;-77
2021/07/18 04:50:26;;;;;;;3.90;2.47;;;19.10;99.90;;;;;;4903865;29;20477;-76
2021/07/18 04:52:53;;;;;;;5.87;2.50;;;19.10;99.90;;;;;;4903483;29;20494;-77
2021/07/18 04:55:21;;;;;;;7.03;2.97;;;19.20;99.90;;;;;;4902890;29;20931;-77
2021/07/18 04:57:48;;;;;;;4.40;2.90;;;19.20;99.90;;;;;;4902908;29;20477;-77
2021/07/18 05:00:17;;;;;;;5.50;2.67;;;19.20;99.90;;;;;;4902732;29;20477;-77
2021/07/18 05:02:44;;;;;;;5.43;2.30;;;19.20;99.90;;;;;;4904139;29;20462;-77
2021/07/18 05:05:13;;;;;;;5.30;3.10;;;19.20;99.90;;;;;;4904504;29;20473;-77
2021/07/18 05:07:51;;;;;;;5.03;2.60;;;19.30;99.90;;;;;;4909355;29;20470;-76
2021/07/18 05:10:18;;;;;;;6.37;3.30;;;19.30;99.90;;;;;;4911935;29;20956;-76
2021/07/18 05:12:45;;;;;;;5.33;3.50;;;19.30;99.90;;;;;;4904413;29;20485;-76
2021/07/18 05:15:13;;;;;;;6.33;2.30;;;19.30;99.90;;;;;;4903639;29;20470;-76
2021/07/18 05:17:40;;;;;;;5.53;2.53;;;19.30;99.90;;;;;;4904271;29;20463;-76
2021/07/18 05:20:07;;;;;;;3.40;2.40;;;19.30;99.90;;;;;;4904370;29;20466;-77
2021/07/18 05:22:34;;;;;;;6.90;2.80;;;19.30;99.90;;;;;;4905727;29;20469;-77
2021/07/18 05:25:05;;;;;;;4.07;2.80;;;19.30;99.90;;;;;;4905058;29;20466;-76
2021/07/18 05:27:32;;;;;;;3.80;2.37;;;19.40;99.90;;;;;;4904451;29;20514;-77
2021/07/18 05:29:58;;;;;;;5.20;2.90;;;19.40;99.90;;;;;;4905294;29;20571;-76
2021/07/18 05:32:25;;;;;;;4.27;2.50;;;19.50;99.90;;;;;;4913789;29;20513;-76
2021/07/18 05:34:52;;;;;;;3.73;2.60;;;19.60;99.90;;;;;;4906017;29;20522;-76
2021/07/18 05:37:19;;;;;;;5.37;3.63;;;19.60;99.90;;;;;;4903739;29;20467;-76
2021/07/18 05:39:47;;;;;;;2.87;2.33;;;19.70;99.90;;;;;;4903301;29;20454;-77
2021/07/18 05:42:15;;;;;;;4.93;2.30;;;19.80;99.90;;;;;;4904049;29;20462;-76
2021/07/18 05:44:42;;;;;;;3.60;2.50;;;19.80;99.90;;;;;;4903417;29;20478;-76
2021/07/18 05:47:10;;;;;;;5.13;2.90;;;19.80;99.90;;;;;;4902390;29;20463;-77
2021/07/18 05:49:37;;;;;;;6.83;2.83;;;19.90;99.90;;;;;;4901535;29;20799;-77
2021/07/18 05:52:04;;;;;;;4.93;2.60;;;19.90;99.90;;;;;;4900866;29;20482;-76
2021/07/18 05:54:31;;;;;;;3.57;2.43;;;20.00;99.90;;;;;;4901198;29;20922;-77
2021/07/18 05:57:00;;;;;;;5.90;2.80;;;20.00;99.90;;;;;;4901398;29;20466;-76
2021/07/18 05:59:28;;;;;;;4.20;2.10;;;20.10;99.90;;;;;;4901236;29;20481;-77
2021/07/18 06:01:55;;;;;;;2.83;2.20;;;20.10;99.90;;;;;;4901483;29;20458;-77
2021/07/18 06:04:21;;;;;;;3.87;2.67;;;20.20;99.90;;;;;;4901499;29;20477;-77
2021/07/18 06:06:48;;;;;;;3.00;2.23;;;20.20;99.90;;;;;;4901327;29;20492;-77
2021/07/18 06:09:15;;;;;;;5.40;3.00;;;20.30;99.90;;;;;;4900771;29;20473;-77
2021/07/18 06:11:41;;;;;;;4.37;2.50;;;20.40;99.90;;;;;;4900581;29;20502;-76
2021/07/18 06:14:08;;;;;;;7.20;2.80;;;20.40;99.90;;;;;;4901196;29;20474;-76
2021/07/18 06:16:36;;;;;;;3.80;2.10;;;20.50;99.90;;;;;;4900812;29;20790;-76
2021/07/18 06:19:03;;;;;;;11.63;2.60;;;20.50;99.90;;;;;;4900646;29;20473;-76
2021/07/18 06:21:30;;;;;;;3.17;2.43;;;20.60;99.90;;;;;;4900897;29;20477;-76
2021/07/18 06:23:58;;;;;;;3.97;2.07;;;20.60;99.90;;;;;;4900487;29;20462;-77
2021/07/18 06:26:25;;;;;;;4.33;2.27;;;20.60;99.90;;;;;;4901792;29;20466;-77
2021/07/18 06:28:52;;;;;;;4.03;2.37;;;20.70;99.90;;;;;;4900952;29;20784;-77
2021/07/18 06:31:18;;;;;;;3.70;2.47;;;20.70;99.90;;;;;;4900419;29;20466;-77
2021/07/18 06:33:46;;;;;;;3.70;2.10;;;20.80;99.90;;;;;;4900450;29;20497;-77
2021/07/18 06:36:14;;;;;;;3.73;2.10;;;20.80;99.90;;;;;;4900984;29;20463;-76
2021/07/18 06:38:40;;;;;;;2.73;2.00;;;20.80;99.90;;;;;;4900771;29;20476;-77
2021/07/18 06:41:07;;;;;;;9.57;2.90;;;20.80;99.90;;;;;;4900288;29;20935;-77
2021/07/18 06:43:34;;;;;;;3.73;2.10;;;20.80;99.90;;;;;;4900757;29;20493;-78
2021/07/18 06:46:00;;;;;;;2.20;1.90;;;20.90;99.90;;;;;;4900957;29;20482;-77
2021/07/18 06:48:27;;;;;;;2.47;1.80;;;20.90;99.90;;;;;;4900531;29;20474;-77
2021/07/18 06:50:57;;;;;;;2.20;1.97;;;20.90;99.90;;;;;;4900826;29;20477;-76
2021/07/18 06:53:24;;;;;;;5.20;2.57;;;20.90;99.90;;;;;;4900920;29;20470;-77
2021/07/18 06:55:52;;;;;;;3.90;2.10;;;21.00;99.90;;;;;;4900605;29;20466;-77
2021/07/18 06:58:18;;;;;;;4.33;2.10;;;21.10;99.90;;;;;;4900281;29;20462;-76
2021/07/18 07:00:45;;;;;;;2.50;1.87;;;21.20;99.90;;;;;;4900169;29;20481;-76
2021/07/18 07:03:12;;;;;;;9.30;2.60;;;21.20;99.90;;;;;;4900443;29;20466;-76
2021/07/18 07:05:38;;;;;;;4.10;2.27;;;21.30;99.90;;;;;;4900162;29;20476;-76
2021/07/18 07:08:07;;;;;;;4.43;1.90;;;21.30;99.90;;;;;;4900526;29;20802;-76
2021/07/18 07:10:34;;;;;;;3.67;2.00;;;21.40;99.90;;;;;;4901327;29;20513;-77
2021/07/18 07:13:01;;;;;;;4.60;1.97;;;21.40;99.90;;;;;;4901284;29;20797;-77
2021/07/18 07:15:27;;;;;;;2.87;2.10;;;21.50;99.90;;;;;;4901358;29;20467;-77
2021/07/18 07:17:54;;;;;;;4.93;2.40;;;21.60;99.90;;;;;;4901476;29;20477;-77
2021/07/18 07:20:21;;;;;;;2.43;1.93;;;21.60;99.90;;;;;;4901072;29;20486;-77
2021/07/18 07:22:48;;;;;;;4.17;1.83;;;21.70;99.90;;;;;;4901346;29;20927;-76
2021/07/18 07:25:17;;;;;;;2.90;1.87;;;21.70;99.90;;;;;;4901164;29;20477;-76
2021/07/18 07:27:44;;;;;;;3.87;2.70;;;21.70;99.90;;;;;;4901615;29;20470;-77
2021/07/18 07:30:14;;;;;;;3.00;2.00;;;21.80;99.90;;;;;;4901461;29;20540;-76
2021/07/18 07:32:41;;;;;;;6.57;2.30;;;21.80;99.90;;;;;;4902283;29;20489;-77
2021/07/18 07:35:13;;;;;;;4.07;2.17;;;21.80;99.90;;;;;;4901850;29;20463;-77
2021/07/18 07:37:40;;;;;;;5.83;2.33;;;21.90;99.90;;;;;;4899967;29;20935;-75
2021/07/18 07:40:09;;;;;;;3.13;1.63;;;21.90;99.90;;;;;;4899743;29;20564;-76
2021/07/18 07:42:37;;;;;;;5.63;2.27;;;22.00;99.90;;;;;;4899805;29;20469;-76
2021/07/18 07:45:05;;;;;;;5.03;2.37;;;22.00;99.90;;;;;;4899554;29;20466;-74
2021/07/18 07:47:34;;;;;;;3.43;2.30;;;22.00;99.90;;;;;;4901467;29;20466;-75
2021/07/18 07:50:00;;;;;;;3.47;1.90;;;22.10;99.90;;;;;;4899980;29;20470;-74
2021/07/18 07:52:30;;;;;;;5.63;2.30;;;22.20;99.90;;;;;;4902394;29;20485;-74
2021/07/18 07:54:56;;;;;;;3.53;2.00;;;22.20;99.90;;;;;;4903240;29;20466;-75
2021/07/18 07:57:23;;;;;;;2.40;2.00;;;22.20;99.90;;;;;;4903090;29;20470;-74
2021/07/18 07:59:52;;;;;;;4.53;2.43;;;22.30;99.90;;;;;;4902992;29;20470;-75
2021/07/18 08:02:19;;;;;;;5.67;2.27;;;22.30;99.90;;;;;;4903043;29;20919;-77
2021/07/18 08:04:46;;;;;;;3.80;2.17;;;22.40;99.90;;;;;;4903208;29;20481;-77
2021/07/18 08:07:12;;;;;;;5.63;2.43;;;22.50;99.90;;;;;;4904018;29;20466;-75
2021/07/18 08:09:39;;;;;;;3.70;2.33;;;22.60;99.90;;;;;;4903985;29;20462;-77
2021/07/18 08:12:09;;;;;;;4.20;2.30;;;22.70;99.90;;;;;;4903341;29;20494;-77
2021/07/18 08:14:37;;;;;;;4.00;2.27;;;22.70;99.90;;;;;;4903821;29;20524;-77
2021/07/18 08:17:05;;;;;;;3.30;2.00;;;22.80;99.90;;;;;;4905500;29;20498;-77
2021/07/18 08:19:32;;;;;;;3.63;2.13;;;22.90;99.90;;;;;;4906351;29;20490;-77
2021/07/18 08:21:59;;;;;;;2.60;2.20;;;23.00;99.90;;;;;;4904268;29;20476;-75
2021/07/18 08:24:25;;;;;;;3.37;1.70;;;23.10;99.90;;;;;;4904844;29;20466;-76
2021/07/18 08:26:54;;;;;;;5.13;2.60;;;23.10;99.90;;;;;;4904440;29;20466;-77
2021/07/18 08:29:20;;;;;;;3.77;2.53;;;23.20;99.90;;;;;;4904243;29;20497;-76
2021/07/18 08:31:47;;;;;;;2.93;1.80;;;23.20;99.90;;;;;;4903304;29;20466;-77
2021/07/18 08:34:16;;;;;;;2.23;1.67;;;23.30;99.90;;;;;;4904884;29;20592;-76
2021/07/18 08:36:43;;;;;;;3.20;2.17;;;23.30;99.90;;;;;;4903071;29;20474;-77
2021/07/18 08:39:09;;;;;;;2.80;1.80;;;23.30;99.90;;;;;;4903568;29;20561;-76
2021/07/18 08:41:43;;;;;;;5.30;2.07;;;23.30;99.90;;;;;;4904623;29;20458;-76
2021/07/18 08:44:11;;;;;;;3.20;2.00;;;23.30;99.90;;;;;;4906023;29;20749;-76
2021/07/18 08:46:39;;;;;;;3.00;2.13;;;23.30;99.90;;;;;;4904660;29;20466;-75
2021/07/18 08:49:06;;;;;;;5.10;3.20;;;23.30;99.90;;;;;;4904012;29;20566;-76
2021/07/18 08:51:34;;;;;;;3.30;2.50;;;23.40;99.90;;;;;;4903011;29;20471;-76
2021/07/18 08:54:02;;;;;;;4.23;2.07;;;23.50;99.90;;;;;;4902360;29;20490;-77
2021/07/18 08:56:32;;;;;;;5.83;2.80;;;23.50;99.90;;;;;;4902543;29;20477;-77
2021/07/18 08:58:58;;;;;;;4.30;1.83;;;23.50;99.90;;;;;;4902130;29;20474;-76
2021/07/18 09:01:25;;;;;;;2.53;2.33;;;23.50;99.90;;;;;;4902092;29;20477;-77
2021/07/18 09:03:52;;;;;;;7.80;2.67;;;23.50;99.90;;;;;;4901897;29;20538;-76
2021/07/18 09:06:37;;;;;;;2.60;2.10;;;23.60;99.90;;;;;;4901677;29;20473;-77
2021/07/18 09:09:08;;;;;;;2.17;2.03;;;23.60;99.90;;;;;;4902599;29;20775;-77
2021/07/18 09:11:36;;;;;;;2.10;2.00;;;23.70;99.90;;;;;;4902648;29;20931;-76
2021/07/18 09:14:07;;;;;;;3.33;2.30;;;23.80;99.90;;;;;;4902212;29;20545;-74
2021/07/18 09:16:36;;;;;;;7.37;2.83;;;23.80;99.90;;;;;;4903097;29;20446;-74
2021/07/18 09:19:17;;;;;;;4.50;3.27;;;23.80;99.90;;;;;;4901966;29;20473;-75
2021/07/18 09:21:51;;;;;;;2.20;2.00;;;23.90;99.90;;;;;;4901854;29;20953;-74
2021/07/18 09:24:22;;;;;;;4.40;3.20;;;24.00;99.90;;;;;;4902722;29;20453;-74
2021/07/18 09:27:11;;;;;;;5.13;2.10;;;24.10;99.90;;;;;;4902947;29;20443;-73
2021/07/18 09:29:40;;;;;;;2.87;2.10;;;24.10;99.90;;;;;;4903192;29;20486;-73
2021/07/18 09:32:08;;;;;;;2.70;2.00;;;24.10;99.90;;;;;;4902679;29;20462;-73
2021/07/18 09:34:37;;;;;;;5.20;2.17;;;24.20;99.90;;;;;;4903439;29;20505;-73
2021/07/18 09:37:06;;;;;;;3.00;2.03;;;24.20;99.90;;;;;;4905691;29;20475;-73
2021/07/18 09:39:34;;;;;;;4.80;2.17;;;24.30;99.90;;;;;;4906107;29;20529;-74
2021/07/18 09:42:01;;;;;;;3.60;2.37;;;24.40;99.90;;;;;;4903408;29;20474;-73
2021/07/18 09:44:28;;;;;;;5.70;2.40;;;24.50;99.90;;;;;;4903260;29;20462;-73
2021/07/18 09:47:02;;;;;;;3.23;2.03;;;24.60;99.90;;;;;;4902018;29;20474;-73
2021/07/18 09:49:33;;;;;;;3.00;1.80;;;24.70;99.90;;;;;;4902888;29;20449;-73
2021/07/18 09:52:14;;;;;;;4.93;1.77;;;24.70;99.90;;;;;;4902565;29;20477;-73
2021/07/18 09:54:42;;;;;;;2.30;1.73;;;24.80;99.90;;;;;;4901808;29;20814;-73
2021/07/18 09:57:10;;;;;;;4.17;2.43;;;24.80;99.90;;;;;;4902449;29;20466;-73
2021/07/18 09:59:38;;;;;;;5.93;2.20;;;24.80;99.90;;;;;;4902351;29;20526;-73
2021/07/18 10:02:05;;;;;;;3.00;2.00;;;24.80;99.90;;;;;;4901619;29;20472;-74
2021/07/18 10:04:39;;;;;;;2.53;2.07;;;24.80;99.90;;;;;;4901469;29;20458;-73
2021/07/18 10:07:08;;;;;;;4.70;2.17;;;25.00;99.90;;;;;;4901358;29;20458;-74
2021/07/18 10:09:35;;;;;;;3.83;2.00;;;25.10;99.90;;;;;;4901321;29;20466;-74
2021/07/18 10:12:04;;;;;;;3.93;2.50;;;25.20;99.90;;;;;;4900926;29;20504;-74
2021/07/18 10:14:31;;;;;;;2.00;1.87;;;25.40;99.90;;;;;;4899771;29;20494;-75
2021/07/18 10:16:58;;;;;;;2.23;1.80;;;25.50;99.90;;;;;;4900689;29;20565;-74
2021/07/18 10:19:25;;;;;;;2.10;1.83;;;25.50;99.90;;;;;;4900444;29;20507;-74
2021/07/18 10:21:53;;;;;;;2.80;1.87;;;25.60;99.90;;;;;;4901102;29;20462;-75
2021/07/18 10:24:20;;;;;;;3.57;2.33;;;25.70;99.90;;;;;;4901569;29;20773;-76
2021/07/18 10:26:49;;;;;;;6.33;1.90;;;25.70;99.90;;;;;;4902656;29;20473;-74
2021/07/18 10:29:18;;;;;;;2.37;1.87;;;25.80;99.90;;;;;;4901243;29;20477;-74
2021/07/18 10:31:50;;;;;;;1.70;1.60;;;25.80;99.90;;;;;;4900723;29;20473;-74
2021/07/18 10:34:18;;;;;;;3.47;1.90;;;25.80;99.90;;;;;;4902594;29;20800;-74
2021/07/18 10:36:46;;;;;;;2.50;1.50;;;26.00;99.90;;;;;;4901484;29;20478;-74
2021/07/18 10:39:29;;;;;;;3.00;1.87;;;26.00;99.90;;;;;;4901304;29;20467;-76
2021/07/18 10:41:56;;;;;;;2.33;1.87;;;26.10;99.90;;;;;;4900418;29;20462;-76
2021/07/18 10:44:25;;;;;;;4.57;2.33;;;26.20;99.90;;;;;;4901070;29;20467;-76
2021/07/18 10:46:54;;;;;;;3.03;1.67;;;26.20;99.90;;;;;;4900433;29;20481;-77
2021/07/18 10:49:56;;;;;;;3.23;2.00;;;26.20;99.90;;;;;;4900842;29;20466;-77
2021/07/18 10:52:24;;;;;;;3.13;1.70;;;26.30;99.90;;;;;;4900718;29;20450;-77
2021/07/18 10:54:51;;;;;;;1.87;1.37;;;26.30;99.90;;;;;;4900336;29;20599;-76
2021/07/18 10:57:31;;;;;;;4.33;1.90;;;26.40;99.90;;;;;;4900680;29;20473;-76
2021/07/18 11:00:20;;;;;;;2.90;1.73;;;26.40;99.90;;;;;;4901249;29;20455;-76
2021/07/18 11:02:47;;;;;;;2.37;1.77;;;26.30;99.90;;;;;;4900860;29;20454;-76
2021/07/18 11:05:16;;;;;;;2.27;2.07;;;26.30;99.90;;;;;;4900184;29;20469;-76
2021/07/18 11:07:54;;;;;;;3.77;1.60;;;26.30;99.90;;;;;;4900505;29;20471;-75
2021/07/18 11:10:24;;;;;;;3.70;1.57;;;26.40;99.90;;;;;;4900641;29;20529;-77
2021/07/18 11:13:01;;;;;;;2.30;1.63;;;26.40;99.90;;;;;;4901194;29;20738;-76
2021/07/18 11:15:36;;;;;;;2.57;1.70;;;26.60;99.90;;;;;;4900321;29;20482;-76
2021/07/18 11:18:08;;;;;;;3.97;1.73;;;26.60;99.90;;;;;;4900996;29;20452;-76
2021/07/18 11:20:55;;;;;;;5.20;1.40;;;26.60;99.90;;;;;;4901240;29;20458;-76
2021/07/18 11:23:29;;;;;;;2.90;2.20;;;26.60;99.90;;;;;;4901513;29;20466;-76
2021/07/18 11:26:02;;;;;;;1.90;1.50;;;26.80;99.90;;;;;;4902873;29;20456;-75
2021/07/18 11:31:30;;;;;;;3.33;1.47;;;27.10;99.90;;;;;;4903566;29;20780;-76
2021/07/18 11:34:00;;;;;;;1.67;1.57;;;27.40;99.90;;;;;;4903860;29;20490;-76
2021/07/18 11:37:05;;;;;;;2.73;1.37;;;27.50;99.90;;;;;;4903645;29;20473;-76
2021/07/18 11:39:34;;;;;;;1.70;1.43;;;28.10;99.90;;;;;;4904260;29;20913;-76
2021/07/18 11:42:05;;;;;;;2.23;1.60;;;28.70;99.90;;;;;;4904625;29;20470;-75
2021/07/18 11:44:32;;;;;;;5.30;2.00;;;29.00;99.90;;;;;;4904510;29;20442;-75
2021/07/18 11:47:06;;;;;;;3.20;1.60;;;29.50;99.90;;;;;;4903831;29;20477;-74
2021/07/18 11:49:36;;;;;;;2.83;1.47;;;30.10;99.90;;;;;;4903686;29;20460;-75
2021/07/18 11:52:04;;;;;;;5.20;1.27;;;30.50;99.90;;;;;;4903413;29;20498;-75
2021/07/18 11:54:32;;;;;;;1.50;1.30;;;30.90;99.90;;;;;;4903156;29;20485;-75
2021/07/18 11:56:59;;;;;;;2.70;1.07;;;31.20;99.90;;;;;;4903666;29;20466;-75
2021/07/18 11:59:28;;;;;;;1.80;1.37;;;31.50;99.90;;;;;;4904020;29;20470;-75
2021/07/18 12:01:56;;;;;;;1.83;1.20;;;31.40;99.90;;;;;;4903672;29;20990;-75
2021/07/18 12:04:26;;;;;;;3.40;1.57;;;31.30;99.90;;;;;;4903717;29;20486;-75
2021/07/18 12:06:54;;;;;;;2.90;1.60;;;31.40;99.90;;;;;;4904326;29;20462;-75
2021/07/18 12:09:26;;;;;;;1.73;1.27;;;31.40;99.90;;;;;;4903969;29;20466;-75
2021/07/18 12:11:56;;;;;;;3.20;1.13;;;31.60;99.90;;;;;;4903087;29;20490;-75
2021/07/18 12:14:23;;;;;;;2.63;1.20;;;31.70;99.90;;;;;;4904196;29;20521;-76
2021/07/18 12:16:53;;;;;;;4.13;1.60;;;31.80;99.90;;;;;;4903563;29;20931;-75
2021/07/18 12:19:26;;;;;;;2.17;1.43;;;31.50;99.90;;;;;;4903521;29;20461;-75
2021/07/18 12:21:53;;;;;;;6.00;2.13;;;31.00;99.90;;;;;;4903866;29;20506;-75
2021/07/18 12:24:22;;;;;;;2.50;2.30;;;30.40;99.90;;;;;;4903206;29;20470;-75
2021/07/18 12:27:01;;;;;;;2.60;2.00;;;30.30;99.90;;;;;;4903513;29;20473;-75
2021/07/18 12:29:29;;;;;;;3.60;1.27;;;30.80;99.90;;;;;;4904407;29;20451;-74
2021/07/18 12:31:56;;;;;;;2.00;1.13;;;31.20;99.90;;;;;;4902110;29;20455;-75
2021/07/18 12:34:30;;;;;;;2.13;1.20;;;31.00;99.90;;;;;;4902096;29;20489;-74
2021/07/18 12:36:58;;;;;;;4.30;1.50;;;30.60;99.90;;;;;;4901782;29;20946;-75
2021/07/18 12:39:28;;;;;;;2.63;1.70;;;30.60;99.90;;;;;;4901650;29;20792;-74
2021/07/18 12:42:00;;;;;;;3.33;1.30;;;30.60;99.90;;;;;;4902287;29;20496;-74
2021/07/18 12:44:30;;;;;;;2.03;1.17;;;30.40;99.90;;;;;;4902232;29;20457;-75
2021/07/18 12:47:37;;;;;;;3.33;1.43;;;30.00;99.90;;;;;;4902138;29;20967;-75
2021/07/18 12:50:18;;;;;;;2.77;1.40;;;29.70;99.90;;;;;;4902344;29;20451;-75
2021/07/18 12:52:54;;;;;;;2.10;1.20;;;29.60;99.90;;;;;;4901971;29;20478;-75
2021/07/18 12:55:26;;;;;;;2.47;1.40;;;29.90;99.90;;;;;;4902772;29;20474;-74